sensor_id;sensor_type;location;lat;lon;timestamp;P1;durP1;ratioP1;P2;durP2;ratioP2
13879;SDS011;7010;48.200;16.332;2023-02-28T00:01:37;5.70;;;5.00;;
13879;SDS011;7010;48.200;16.332;2023-02-28T00:04:05;6.40;;;4.17;;
13879;SDS011;7010;48.200;16.332;2023-02-28T00:06:35;6.60;;;4.67;;
13879;SDS011;7010;48.200;16.332;2023-02-28T00:09:03;5.32;;;4.30;;
13879;SDS011;7010;48.200;16.332;2023-02-28T00:11:32;4.97;;;4.37;;
13879;SDS011;7010;48.200;16.332;2023-02-28T00:14:02;5.20;;;4.70;;
13879;SDS011;7010;48.200;16.332;2023-02-28T00:16:30;5.20;;;4.63;;
13879;SDS011;7010;48.200;16.332;2023-02-28T00:18:58;5.83;;;4.83;;
13879;SDS011;7010;48.200;16.332;2023-02-28T00:21:27;7.57;;;4.67;;
13879;SDS011;7010;48.200;16.332;2023-02-28T00:23:55;4.47;;;4.00;;
13879;SDS011;7010;48.200;16.332;2023-02-28T00:26:24;5.60;;;5.07;;
13879;SDS011;7010;48.200;16.332;2023-02-28T00:28:52;9.63;;;5.03;;
13879;SDS011;7010;48.200;16.332;2023-02-28T00:31:22;7.97;;;5.40;;
13879;SDS011;7010;48.200;16.332;2023-02-28T00:33:50;5.37;;;4.83;;
13879;SDS011;7010;48.200;16.332;2023-02-28T00:36:18;5.35;;;4.88;;
13879;SDS011;7010;48.200;16.332;2023-02-28T00:38:46;5.60;;;4.20;;
13879;SDS011;7010;48.200;16.332;2023-02-28T00:41:15;5.75;;;5.15;;
13879;SDS011;7010;48.200;16.332;2023-02-28T00:43:43;6.97;;;4.57;;
13879;SDS011;7010;48.200;16.332;2023-02-28T00:46:12;9.00;;;5.47;;
13879;SDS011;7010;48.200;16.332;2023-02-28T00:48:42;9.33;;;5.17;;
13879;SDS011;7010;48.200;16.332;2023-02-28T00:51:10;5.67;;;5.10;;
13879;SDS011;7010;48.200;16.332;2023-02-28T00:53:39;6.00;;;5.05;;
13879;SDS011;7010;48.200;16.332;2023-02-28T00:56:07;6.35;;;5.65;;
13879;SDS011;7010;48.200;16.332;2023-02-28T00:58:35;8.90;;;4.93;;
13879;SDS011;7010;48.200;16.332;2023-02-28T01:01:03;7.07;;;4.60;;
13879;SDS011;7010;48.200;16.332;2023-02-28T01:03:32;5.20;;;4.37;;
13879;SDS011;7010;48.200;16.332;2023-02-28T01:06:02;5.22;;;4.63;;
13879;SDS011;7010;48.200;16.332;2023-02-28T01:08:30;6.43;;;5.00;;
13879;SDS011;7010;48.200;16.332;2023-02-28T01:11:06;11.60;;;5.13;;
13879;SDS011;7010;48.200;16.332;2023-02-28T01:13:36;5.10;;;4.47;;
13879;SDS011;7010;48.200;16.332;2023-02-28T01:16:04;5.87;;;4.97;;
13879;SDS011;7010;48.200;16.332;2023-02-28T01:18:33;5.70;;;4.80;;
13879;SDS011;7010;48.200;16.332;2023-02-28T01:21:04;7.23;;;5.17;;
13879;SDS011;7010;48.200;16.332;2023-02-28T01:23:33;5.40;;;4.50;;
13879;SDS011;7010;48.200;16.332;2023-02-28T01:26:03;5.70;;;4.95;;
13879;SDS011;7010;48.200;16.332;2023-02-28T01:28:32;6.00;;;4.67;;
13879;SDS011;7010;48.200;16.332;2023-02-28T01:31:01;5.17;;;4.67;;
13879;SDS011;7010;48.200;16.332;2023-02-28T01:33:29;6.10;;;5.33;;
13879;SDS011;7010;48.200;16.332;2023-02-28T01:35:58;9.87;;;5.17;;
13879;SDS011;7010;48.200;16.332;2023-02-28T01:38:28;5.53;;;4.40;;
13879;SDS011;7010;48.200;16.332;2023-02-28T01:40:57;7.80;;;5.30;;
13879;SDS011;7010;48.200;16.332;2023-02-28T01:43:25;9.90;;;5.37;;
13879;SDS011;7010;48.200;16.332;2023-02-28T01:45:56;7.70;;;6.10;;
13879;SDS011;7010;48.200;16.332;2023-02-28T01:48:26;8.67;;;5.67;;
13879;SDS011;7010;48.200;16.332;2023-02-28T01:50:59;5.60;;;4.97;;
13879;SDS011;7010;48.200;16.332;2023-02-28T01:53:34;7.40;;;5.23;;
13879;SDS011;7010;48.200;16.332;2023-02-28T01:56:05;6.83;;;5.63;;
13879;SDS011;7010;48.200;16.332;2023-02-28T01:58:39;6.47;;;4.53;;
13879;SDS011;7010;48.200;16.332;2023-02-28T02:01:08;6.50;;;4.87;;
13879;SDS011;7010;48.200;16.332;2023-02-28T02:03:48;5.27;;;4.77;;
13879;SDS011;7010;48.200;16.332;2023-02-28T02:06:21;4.87;;;4.47;;
13879;SDS011;7010;48.200;16.332;2023-02-28T02:08:52;6.90;;;4.73;;
13879;SDS011;7010;48.200;16.332;2023-02-28T02:11:20;5.47;;;4.93;;
13879;SDS011;7010;48.200;16.332;2023-02-28T02:13:55;6.18;;;5.57;;
13879;SDS011;7010;48.200;16.332;2023-02-28T02:16:41;6.40;;;5.63;;
13879;SDS011;7010;48.200;16.332;2023-02-28T02:19:28;4.60;;;4.20;;
13879;SDS011;7010;48.200;16.332;2023-02-28T02:25:13;8.80;;;5.03;;
13879;SDS011;7010;48.200;16.332;2023-02-28T02:34:25;7.37;;;5.20;;
13879;SDS011;7010;48.200;16.332;2023-02-28T02:37:03;5.77;;;5.17;;
13879;SDS011;7010;48.200;16.332;2023-02-28T02:39:43;5.90;;;5.07;;
13879;SDS011;7010;48.200;16.332;2023-02-28T02:42:20;7.87;;;5.53;;
13879;SDS011;7010;48.200;16.332;2023-02-28T02:44:55;6.17;;;5.53;;
13879;SDS011;7010;48.200;16.332;2023-02-28T02:47:27;9.40;;;5.37;;
13879;SDS011;7010;48.200;16.332;2023-02-28T02:50:01;5.77;;;5.13;;
13879;SDS011;7010;48.200;16.332;2023-02-28T02:52:34;6.00;;;5.40;;
13879;SDS011;7010;48.200;16.332;2023-02-28T02:55:06;7.43;;;5.63;;
13879;SDS011;7010;48.200;16.332;2023-02-28T02:57:38;5.50;;;4.80;;
13879;SDS011;7010;48.200;16.332;2023-02-28T03:00:13;6.03;;;5.40;;
13879;SDS011;7010;48.200;16.332;2023-02-28T03:02:45;5.70;;;5.10;;
13879;SDS011;7010;48.200;16.332;2023-02-28T03:05:19;6.57;;;5.27;;
13879;SDS011;7010;48.200;16.332;2023-02-28T03:07:51;5.90;;;5.37;;
13879;SDS011;7010;48.200;16.332;2023-02-28T03:10:30;7.15;;;6.20;;
13879;SDS011;7010;48.200;16.332;2023-02-28T03:13:27;5.33;;;4.83;;
13879;SDS011;7010;48.200;16.332;2023-02-28T03:16:28;6.30;;;4.63;;
13879;SDS011;7010;48.200;16.332;2023-02-28T03:19:25;4.90;;;4.43;;
13879;SDS011;7010;48.200;16.332;2023-02-28T03:22:19;7.77;;;5.90;;
13879;SDS011;7010;48.200;16.332;2023-02-28T03:25:01;7.63;;;6.23;;
13879;SDS011;7010;48.200;16.332;2023-02-28T03:27:35;6.47;;;5.83;;
13879;SDS011;7010;48.200;16.332;2023-02-28T03:30:10;10.10;;;6.33;;
13879;SDS011;7010;48.200;16.332;2023-02-28T03:32:44;5.67;;;4.87;;
13879;SDS011;7010;48.200;16.332;2023-02-28T03:35:19;5.30;;;4.75;;
13879;SDS011;7010;48.200;16.332;2023-02-28T03:37:53;6.23;;;5.30;;
13879;SDS011;7010;48.200;16.332;2023-02-28T03:40:27;9.77;;;5.90;;
13879;SDS011;7010;48.200;16.332;2023-02-28T03:43:00;5.43;;;4.93;;
13879;SDS011;7010;48.200;16.332;2023-02-28T03:45:32;7.87;;;5.47;;
13879;SDS011;7010;48.200;16.332;2023-02-28T03:48:06;7.17;;;6.27;;
13879;SDS011;7010;48.200;16.332;2023-02-28T03:50:41;6.80;;;6.10;;
13879;SDS011;7010;48.200;16.332;2023-02-28T03:53:14;5.73;;;5.10;;
13879;SDS011;7010;48.200;16.332;2023-02-28T03:55:48;7.07;;;5.50;;
13879;SDS011;7010;48.200;16.332;2023-02-28T03:58:22;9.93;;;6.67;;
13879;SDS011;7010;48.200;16.332;2023-02-28T04:00:57;6.20;;;5.10;;
13879;SDS011;7010;48.200;16.332;2023-02-28T04:03:36;7.97;;;5.77;;
13879;SDS011;7010;48.200;16.332;2023-02-28T04:06:06;6.37;;;5.73;;
13879;SDS011;7010;48.200;16.332;2023-02-28T04:08:37;7.33;;;5.60;;
13879;SDS011;7010;48.200;16.332;2023-02-28T04:11:07;8.37;;;5.70;;
13879;SDS011;7010;48.200;16.332;2023-02-28T04:13:46;8.63;;;6.57;;
13879;SDS011;7010;48.200;16.332;2023-02-28T04:16:14;6.25;;;5.65;;
13879;SDS011;7010;48.200;16.332;2023-02-28T04:19:00;5.57;;;4.90;;
13879;SDS011;7010;48.200;16.332;2023-02-28T04:21:30;7.57;;;5.50;;
13879;SDS011;7010;48.200;16.332;2023-02-28T04:24:00;9.57;;;5.83;;
13879;SDS011;7010;48.200;16.332;2023-02-28T04:26:29;6.80;;;5.80;;
13879;SDS011;7010;48.200;16.332;2023-02-28T04:28:58;8.20;;;6.40;;
13879;SDS011;7010;48.200;16.332;2023-02-28T04:31:27;7.30;;;5.90;;
13879;SDS011;7010;48.200;16.332;2023-02-28T04:33:56;6.20;;;5.60;;
13879;SDS011;7010;48.200;16.332;2023-02-28T04:36:24;10.23;;;6.70;;
13879;SDS011;7010;48.200;16.332;2023-02-28T04:38:53;9.27;;;6.33;;
13879;SDS011;7010;48.200;16.332;2023-02-28T04:41:23;9.50;;;6.80;;
13879;SDS011;7010;48.200;16.332;2023-02-28T04:43:54;6.90;;;6.27;;
13879;SDS011;7010;48.200;16.332;2023-02-28T04:46:24;7.43;;;6.67;;
13879;SDS011;7010;48.200;16.332;2023-02-28T04:48:53;10.07;;;6.67;;
13879;SDS011;7010;48.200;16.332;2023-02-28T04:51:21;10.60;;;7.03;;
13879;SDS011;7010;48.200;16.332;2023-02-28T04:53:50;6.03;;;5.43;;
13879;SDS011;7010;48.200;16.332;2023-02-28T04:56:18;7.63;;;5.93;;
13879;SDS011;7010;48.200;16.332;2023-02-28T04:58:48;15.00;;;5.77;;
13879;SDS011;7010;48.200;16.332;2023-02-28T05:01:21;5.93;;;5.40;;
13879;SDS011;7010;48.200;16.332;2023-02-28T05:03:51;8.37;;;5.93;;
13879;SDS011;7010;48.200;16.332;2023-02-28T05:06:21;6.37;;;5.63;;
13879;SDS011;7010;48.200;16.332;2023-02-28T05:08:51;10.03;;;6.43;;
13879;SDS011;7010;48.200;16.332;2023-02-28T05:11:20;8.63;;;5.83;;
13879;SDS011;7010;48.200;16.332;2023-02-28T05:13:52;6.93;;;6.17;;
13879;SDS011;7010;48.200;16.332;2023-02-28T05:16:21;7.23;;;5.93;;
13879;SDS011;7010;48.200;16.332;2023-02-28T05:18:49;7.43;;;5.73;;
13879;SDS011;7010;48.200;16.332;2023-02-28T05:21:24;10.77;;;6.83;;
13879;SDS011;7010;48.200;16.332;2023-02-28T05:23:57;6.27;;;5.33;;
13879;SDS011;7010;48.200;16.332;2023-02-28T05:26:26;7.60;;;6.03;;
13879;SDS011;7010;48.200;16.332;2023-02-28T05:28:59;12.47;;;6.33;;
13879;SDS011;7010;48.200;16.332;2023-02-28T05:31:27;6.13;;;5.47;;
13879;SDS011;7010;48.200;16.332;2023-02-28T05:33:56;6.83;;;5.63;;
13879;SDS011;7010;48.200;16.332;2023-02-28T05:36:25;5.67;;;4.87;;
13879;SDS011;7010;48.200;16.332;2023-02-28T05:38:53;6.50;;;5.73;;
13879;SDS011;7010;48.200;16.332;2023-02-28T05:41:21;5.97;;;5.37;;
13879;SDS011;7010;48.200;16.332;2023-02-28T05:43:50;7.80;;;5.77;;
13879;SDS011;7010;48.200;16.332;2023-02-28T05:46:19;6.67;;;6.07;;
13879;SDS011;7010;48.200;16.332;2023-02-28T05:48:48;5.67;;;5.13;;
13879;SDS011;7010;48.200;16.332;2023-02-28T05:51:17;6.30;;;5.67;;
13879;SDS011;7010;48.200;16.332;2023-02-28T05:53:46;6.80;;;6.13;;
13879;SDS011;7010;48.200;16.332;2023-02-28T05:56:15;5.57;;;5.03;;
13879;SDS011;7010;48.200;16.332;2023-02-28T05:58:43;7.17;;;5.90;;
13879;SDS011;7010;48.200;16.332;2023-02-28T06:01:23;6.90;;;5.67;;
13879;SDS011;7010;48.200;16.332;2023-02-28T06:03:58;8.93;;;6.27;;
13879;SDS011;7010;48.200;16.332;2023-02-28T06:06:27;6.83;;;6.00;;
13879;SDS011;7010;48.200;16.332;2023-02-28T06:08:57;9.07;;;6.57;;
13879;SDS011;7010;48.200;16.332;2023-02-28T06:11:25;7.73;;;6.20;;
13879;SDS011;7010;48.200;16.332;2023-02-28T06:13:55;6.67;;;5.43;;
13879;SDS011;7010;48.200;16.332;2023-02-28T06:16:25;11.03;;;5.73;;
13879;SDS011;7010;48.200;16.332;2023-02-28T06:18:54;8.13;;;6.67;;
13879;SDS011;7010;48.200;16.332;2023-02-28T06:21:24;6.47;;;5.77;;
13879;SDS011;7010;48.200;16.332;2023-02-28T06:23:55;8.07;;;5.78;;
13879;SDS011;7010;48.200;16.332;2023-02-28T06:26:23;7.03;;;5.87;;
13879;SDS011;7010;48.200;16.332;2023-02-28T06:28:52;10.77;;;5.53;;
13879;SDS011;7010;48.200;16.332;2023-02-28T06:31:21;6.73;;;6.03;;
13879;SDS011;7010;48.200;16.332;2023-02-28T06:33:52;8.43;;;7.20;;
13879;SDS011;7010;48.200;16.332;2023-02-28T06:36:20;7.03;;;5.90;;
13879;SDS011;7010;48.200;16.332;2023-02-28T06:38:49;6.20;;;5.60;;
13879;SDS011;7010;48.200;16.332;2023-02-28T06:41:21;6.60;;;6.00;;
13879;SDS011;7010;48.200;16.332;2023-02-28T06:43:50;7.23;;;6.37;;
13879;SDS011;7010;48.200;16.332;2023-02-28T06:46:19;6.30;;;5.33;;
13879;SDS011;7010;48.200;16.332;2023-02-28T06:48:47;8.47;;;6.40;;
13879;SDS011;7010;48.200;16.332;2023-02-28T06:51:18;17.27;;;7.63;;
13879;SDS011;7010;48.200;16.332;2023-02-28T06:53:48;7.90;;;6.67;;
13879;SDS011;7010;48.200;16.332;2023-02-28T06:56:17;6.67;;;5.97;;
13879;SDS011;7010;48.200;16.332;2023-02-28T06:58:47;10.53;;;7.07;;
13879;SDS011;7010;48.200;16.332;2023-02-28T07:01:19;7.30;;;5.97;;
13879;SDS011;7010;48.200;16.332;2023-02-28T07:03:49;7.53;;;6.40;;
13879;SDS011;7010;48.200;16.332;2023-02-28T07:06:20;8.23;;;7.05;;
13879;SDS011;7010;48.200;16.332;2023-02-28T07:08:49;6.43;;;5.83;;
13879;SDS011;7010;48.200;16.332;2023-02-28T07:11:18;9.73;;;7.20;;
13879;SDS011;7010;48.200;16.332;2023-02-28T07:13:48;9.43;;;6.97;;
13879;SDS011;7010;48.200;16.332;2023-02-28T07:16:17;10.47;;;7.77;;
13879;SDS011;7010;48.200;16.332;2023-02-28T07:18:46;10.33;;;7.97;;
13879;SDS011;7010;48.200;16.332;2023-02-28T07:21:14;16.63;;;8.38;;
13879;SDS011;7010;48.200;16.332;2023-02-28T07:23:44;24.67;;;7.72;;
13879;SDS011;7010;48.200;16.332;2023-02-28T07:26:13;10.73;;;8.88;;
13879;SDS011;7010;48.200;16.332;2023-02-28T07:28:45;9.27;;;7.10;;
13879;SDS011;7010;48.200;16.332;2023-02-28T07:31:16;10.43;;;8.07;;
13879;SDS011;7010;48.200;16.332;2023-02-28T07:33:45;8.05;;;6.90;;
13879;SDS011;7010;48.200;16.332;2023-02-28T07:36:14;9.45;;;8.43;;
13879;SDS011;7010;48.200;16.332;2023-02-28T07:38:46;8.05;;;7.35;;
13879;SDS011;7010;48.200;16.332;2023-02-28T07:41:16;10.35;;;7.18;;
13879;SDS011;7010;48.200;16.332;2023-02-28T07:43:46;9.88;;;8.25;;
13879;SDS011;7010;48.200;16.332;2023-02-28T07:46:15;8.75;;;7.82;;
13879;SDS011;7010;48.200;16.332;2023-02-28T07:48:46;12.75;;;8.93;;
13879;SDS011;7010;48.200;16.332;2023-02-28T07:51:14;10.43;;;8.02;;
13879;SDS011;7010;48.200;16.332;2023-02-28T07:53:48;8.30;;;7.28;;
13879;SDS011;7010;48.200;16.332;2023-02-28T07:56:17;9.38;;;7.57;;
13879;SDS011;7010;48.200;16.332;2023-02-28T07:58:45;9.63;;;7.57;;
13879;SDS011;7010;48.200;16.332;2023-02-28T08:01:13;14.77;;;9.13;;
13879;SDS011;7010;48.200;16.332;2023-02-28T08:03:42;10.80;;;8.50;;
13879;SDS011;7010;48.200;16.332;2023-02-28T08:06:15;6.93;;;6.32;;
13879;SDS011;7010;48.200;16.332;2023-02-28T08:08:45;11.98;;;8.35;;
13879;SDS011;7010;48.200;16.332;2023-02-28T08:11:14;8.02;;;7.22;;
13879;SDS011;7010;48.200;16.332;2023-02-28T08:13:42;8.93;;;7.57;;
13879;SDS011;7010;48.200;16.332;2023-02-28T08:16:11;12.68;;;7.82;;
13879;SDS011;7010;48.200;16.332;2023-02-28T08:18:44;8.90;;;7.93;;
13879;SDS011;7010;48.200;16.332;2023-02-28T08:21:12;8.93;;;8.00;;
13879;SDS011;7010;48.200;16.332;2023-02-28T08:23:41;10.27;;;7.57;;
13879;SDS011;7010;48.200;16.332;2023-02-28T08:26:11;8.25;;;6.65;;
13879;SDS011;7010;48.200;16.332;2023-02-28T08:28:40;9.75;;;7.93;;
13879;SDS011;7010;48.200;16.332;2023-02-28T08:31:21;9.43;;;7.72;;
13879;SDS011;7010;48.200;16.332;2023-02-28T08:33:49;7.65;;;7.03;;
13879;SDS011;7010;48.200;16.332;2023-02-28T08:36:19;15.75;;;8.30;;
13879;SDS011;7010;48.200;16.332;2023-02-28T08:38:47;11.82;;;7.97;;
13879;SDS011;7010;48.200;16.332;2023-02-28T08:41:17;8.85;;;7.90;;
13879;SDS011;7010;48.200;16.332;2023-02-28T08:43:45;8.52;;;7.72;;
13879;SDS011;7010;48.200;16.332;2023-02-28T08:46:13;10.23;;;8.73;;
13879;SDS011;7010;48.200;16.332;2023-02-28T08:48:42;10.43;;;8.48;;
13879;SDS011;7010;48.200;16.332;2023-02-28T08:51:11;9.57;;;7.53;;
13879;SDS011;7010;48.200;16.332;2023-02-28T08:53:42;8.50;;;7.10;;
13879;SDS011;7010;48.200;16.332;2023-02-28T08:56:11;11.63;;;7.85;;
13879;SDS011;7010;48.200;16.332;2023-02-28T08:58:42;7.50;;;6.57;;
13879;SDS011;7010;48.200;16.332;2023-02-28T09:01:12;8.80;;;7.38;;
13879;SDS011;7010;48.200;16.332;2023-02-28T09:03:42;8.77;;;7.25;;
13879;SDS011;7010;48.200;16.332;2023-02-28T09:06:12;9.32;;;6.75;;
13879;SDS011;7010;48.200;16.332;2023-02-28T09:08:41;9.75;;;8.18;;
13879;SDS011;7010;48.200;16.332;2023-02-28T09:11:10;7.40;;;6.70;;
13879;SDS011;7010;48.200;16.332;2023-02-28T09:13:39;6.45;;;5.85;;
13879;SDS011;7010;48.200;16.332;2023-02-28T09:16:10;9.70;;;6.93;;
13879;SDS011;7010;48.200;16.332;2023-02-28T09:18:40;7.38;;;6.60;;
13879;SDS011;7010;48.200;16.332;2023-02-28T09:21:09;8.52;;;7.40;;
13879;SDS011;7010;48.200;16.332;2023-02-28T09:23:40;6.82;;;6.18;;
13879;SDS011;7010;48.200;16.332;2023-02-28T09:26:12;7.13;;;6.38;;
13879;SDS011;7010;48.200;16.332;2023-02-28T09:28:43;8.20;;;7.28;;
13879;SDS011;7010;48.200;16.332;2023-02-28T09:31:11;8.75;;;7.13;;
13879;SDS011;7010;48.200;16.332;2023-02-28T09:33:41;7.97;;;6.72;;
13879;SDS011;7010;48.200;16.332;2023-02-28T09:36:10;6.95;;;6.25;;
13879;SDS011;7010;48.200;16.332;2023-02-28T09:38:38;8.05;;;6.90;;
13879;SDS011;7010;48.200;16.332;2023-02-28T09:41:10;7.57;;;6.50;;
13879;SDS011;7010;48.200;16.332;2023-02-28T09:43:44;7.22;;;6.53;;
13879;SDS011;7010;48.200;16.332;2023-02-28T09:46:19;8.18;;;7.35;;
13879;SDS011;7010;48.200;16.332;2023-02-28T09:49:02;33.65;;;8.35;;
13879;SDS011;7010;48.200;16.332;2023-02-28T09:51:34;9.75;;;8.02;;
13879;SDS011;7010;48.200;16.332;2023-02-28T09:54:11;7.53;;;6.47;;
13879;SDS011;7010;48.200;16.332;2023-02-28T09:56:45;10.85;;;7.45;;
13879;SDS011;7010;48.200;16.332;2023-02-28T09:59:25;12.82;;;7.43;;
13879;SDS011;7010;48.200;16.332;2023-02-28T10:02:04;8.27;;;6.65;;
13879;SDS011;7010;48.200;16.332;2023-02-28T10:04:46;6.72;;;6.13;;
13879;SDS011;7010;48.200;16.332;2023-02-28T10:07:23;10.50;;;7.43;;
13879;SDS011;7010;48.200;16.332;2023-02-28T10:10:06;7.68;;;6.85;;
13879;SDS011;7010;48.200;16.332;2023-02-28T10:12:43;8.15;;;7.10;;
13879;SDS011;7010;48.200;16.332;2023-02-28T10:15:14;9.25;;;7.35;;
13879;SDS011;7010;48.200;16.332;2023-02-28T10:17:44;8.50;;;6.72;;
13879;SDS011;7010;48.200;16.332;2023-02-28T10:20:26;10.15;;;7.82;;
13879;SDS011;7010;48.200;16.332;2023-02-28T10:22:58;7.57;;;6.72;;
13879;SDS011;7010;48.200;16.332;2023-02-28T10:25:34;10.00;;;7.88;;
13879;SDS011;7010;48.200;16.332;2023-02-28T10:28:08;7.55;;;6.85;;
13879;SDS011;7010;48.200;16.332;2023-02-28T10:30:44;12.02;;;7.65;;
13879;SDS011;7010;48.200;16.332;2023-02-28T10:33:18;8.60;;;7.70;;
13879;SDS011;7010;48.200;16.332;2023-02-28T10:35:50;8.15;;;7.28;;
13879;SDS011;7010;48.200;16.332;2023-02-28T10:38:20;10.27;;;7.05;;
13879;SDS011;7010;48.200;16.332;2023-02-28T10:40:50;10.70;;;7.80;;
13879;SDS011;7010;48.200;16.332;2023-02-28T10:43:22;7.90;;;7.20;;
13879;SDS011;7010;48.200;16.332;2023-02-28T10:45:55;12.07;;;7.63;;
13879;SDS011;7010;48.200;16.332;2023-02-28T10:48:38;8.23;;;7.47;;
13879;SDS011;7010;48.200;16.332;2023-02-28T10:51:10;15.60;;;6.95;;
13879;SDS011;7010;48.200;16.332;2023-02-28T10:53:44;7.20;;;6.50;;
13879;SDS011;7010;48.200;16.332;2023-02-28T10:56:26;8.57;;;6.35;;
13879;SDS011;7010;48.200;16.332;2023-02-28T10:58:58;8.70;;;7.68;;
13879;SDS011;7010;48.200;16.332;2023-02-28T11:01:37;9.75;;;7.53;;
13879;SDS011;7010;48.200;16.332;2023-02-28T11:04:16;7.78;;;6.95;;
13879;SDS011;7010;48.200;16.332;2023-02-28T11:06:48;8.00;;;6.50;;
13879;SDS011;7010;48.200;16.332;2023-02-28T11:09:27;9.23;;;8.32;;
13879;SDS011;7010;48.200;16.332;2023-02-28T11:11:58;11.82;;;6.85;;
13879;SDS011;7010;48.200;16.332;2023-02-28T11:14:28;9.13;;;7.32;;
13879;SDS011;7010;48.200;16.332;2023-02-28T11:17:12;7.70;;;6.47;;
13879;SDS011;7010;48.200;16.332;2023-02-28T11:19:46;9.35;;;7.38;;
13879;SDS011;7010;48.200;16.332;2023-02-28T11:22:18;7.53;;;6.80;;
13879;SDS011;7010;48.200;16.332;2023-02-28T11:24:50;7.85;;;7.15;;
13879;SDS011;7010;48.200;16.332;2023-02-28T11:27:24;8.52;;;7.63;;
13879;SDS011;7010;48.200;16.332;2023-02-28T11:29:54;8.10;;;7.18;;
13879;SDS011;7010;48.200;16.332;2023-02-28T11:32:24;8.07;;;6.88;;
13879;SDS011;7010;48.200;16.332;2023-02-28T11:35:02;6.57;;;5.90;;
13879;SDS011;7010;48.200;16.332;2023-02-28T11:37:31;7.20;;;6.57;;
13879;SDS011;7010;48.200;16.332;2023-02-28T11:40:00;8.05;;;7.20;;
13879;SDS011;7010;48.200;16.332;2023-02-28T11:45:24;9.68;;;7.80;;
13879;SDS011;7010;48.200;16.332;2023-02-28T11:48:10;7.25;;;6.65;;
13879;SDS011;7010;48.200;16.332;2023-02-28T11:53:41;8.57;;;7.22;;
13879;SDS011;7010;48.200;16.332;2023-02-28T11:56:31;7.07;;;6.47;;
13879;SDS011;7010;48.200;16.332;2023-02-28T11:59:08;9.73;;;7.13;;
13879;SDS011;7010;48.200;16.332;2023-02-28T12:01:57;7.63;;;6.55;;
13879;SDS011;7010;48.200;16.332;2023-02-28T12:04:51;11.02;;;7.70;;
13879;SDS011;7010;48.200;16.332;2023-02-28T12:07:29;9.38;;;7.18;;
13879;SDS011;7010;48.200;16.332;2023-02-28T12:10:05;6.63;;;6.03;;
13879;SDS011;7010;48.200;16.332;2023-02-28T12:12:44;8.00;;;7.25;;
13879;SDS011;7010;48.200;16.332;2023-02-28T12:18:20;8.27;;;7.45;;
13879;SDS011;7010;48.200;16.332;2023-02-28T12:21:03;7.88;;;7.07;;
13879;SDS011;7010;48.200;16.332;2023-02-28T12:23:51;7.88;;;7.07;;
13879;SDS011;7010;48.200;16.332;2023-02-28T12:26:32;7.40;;;6.70;;
13879;SDS011;7010;48.200;16.332;2023-02-28T12:29:08;6.78;;;6.18;;
13879;SDS011;7010;48.200;16.332;2023-02-28T12:31:42;10.85;;;6.03;;
13879;SDS011;7010;48.200;16.332;2023-02-28T12:34:18;7.45;;;6.68;;
13879;SDS011;7010;48.200;16.332;2023-02-28T12:36:53;8.55;;;6.82;;
13879;SDS011;7010;48.200;16.332;2023-02-28T12:39:26;5.93;;;5.43;;
13879;SDS011;7010;48.200;16.332;2023-02-28T12:42:16;7.55;;;6.57;;
13879;SDS011;7010;48.200;16.332;2023-02-28T12:44:51;6.93;;;6.28;;
13879;SDS011;7010;48.200;16.332;2023-02-28T12:47:24;7.40;;;6.10;;
13879;SDS011;7010;48.200;16.332;2023-02-28T12:49:54;6.68;;;5.85;;
13879;SDS011;7010;48.200;16.332;2023-02-28T12:52:29;7.47;;;6.78;;
13879;SDS011;7010;48.200;16.332;2023-02-28T12:55:04;7.22;;;6.18;;
13879;SDS011;7010;48.200;16.332;2023-02-28T12:57:36;7.35;;;6.65;;
13879;SDS011;7010;48.200;16.332;2023-02-28T13:00:10;7.72;;;6.55;;
13879;SDS011;7010;48.200;16.332;2023-02-28T13:02:49;5.43;;;4.90;;
13879;SDS011;7010;48.200;16.332;2023-02-28T13:05:39;8.13;;;7.28;;
13879;SDS011;7010;48.200;16.332;2023-02-28T13:11:31;7.05;;;6.10;;
13879;SDS011;7010;48.200;16.332;2023-02-28T13:14:02;8.10;;;5.32;;
13879;SDS011;7010;48.200;16.332;2023-02-28T13:16:52;8.93;;;6.47;;
13879;SDS011;7010;48.200;16.332;2023-02-28T13:19:25;7.45;;;6.13;;
13879;SDS011;7010;48.200;16.332;2023-02-28T13:21:55;6.35;;;5.75;;
13879;SDS011;7010;48.200;16.332;2023-02-28T13:24:43;6.45;;;5.68;;
13879;SDS011;7010;48.200;16.332;2023-02-28T13:30:49;7.72;;;5.72;;
13879;SDS011;7010;48.200;16.332;2023-02-28T13:33:28;5.85;;;5.35;;
13879;SDS011;7010;48.200;16.332;2023-02-28T13:36:06;5.20;;;4.72;;
13879;SDS011;7010;48.200;16.332;2023-02-28T13:38:38;8.75;;;5.38;;
13879;SDS011;7010;48.200;16.332;2023-02-28T13:44:13;7.43;;;5.82;;
13879;SDS011;7010;48.200;16.332;2023-02-28T13:49:51;5.20;;;4.63;;
13879;SDS011;7010;48.200;16.332;2023-02-28T13:52:21;8.15;;;4.82;;
13879;SDS011;7010;48.200;16.332;2023-02-28T13:57:57;6.75;;;6.05;;
13879;SDS011;7010;48.200;16.332;2023-02-28T14:00:42;5.30;;;4.70;;
13879;SDS011;7010;48.200;16.332;2023-02-28T14:03:29;5.45;;;4.93;;
13879;SDS011;7010;48.200;16.332;2023-02-28T14:06:15;5.22;;;4.78;;
13879;SDS011;7010;48.200;16.332;2023-02-28T14:08:51;7.57;;;4.93;;
13879;SDS011;7010;48.200;16.332;2023-02-28T14:11:26;5.57;;;4.57;;
13879;SDS011;7010;48.200;16.332;2023-02-28T14:13:59;4.38;;;4.07;;
13879;SDS011;7010;48.200;16.332;2023-02-28T14:16:34;5.68;;;5.13;;
13879;SDS011;7010;48.200;16.332;2023-02-28T14:19:10;8.35;;;4.97;;
13879;SDS011;7010;48.200;16.332;2023-02-28T14:21:45;7.82;;;5.90;;
13879;SDS011;7010;48.200;16.332;2023-02-28T14:24:40;6.13;;;5.53;;
13879;SDS011;7010;48.200;16.332;2023-02-28T14:27:22;5.85;;;5.35;;
13879;SDS011;7010;48.200;16.332;2023-02-28T14:33:23;7.80;;;6.60;;
13879;SDS011;7010;48.200;16.332;2023-02-28T14:36:06;5.80;;;5.30;;
13879;SDS011;7010;48.200;16.332;2023-02-28T14:38:41;6.38;;;5.78;;
13879;SDS011;7010;48.200;16.332;2023-02-28T14:41:14;8.98;;;5.90;;
13879;SDS011;7010;48.200;16.332;2023-02-28T14:43:50;6.18;;;5.68;;
13879;SDS011;7010;48.200;16.332;2023-02-28T14:46:21;6.93;;;6.28;;
13879;SDS011;7010;48.200;16.332;2023-02-28T14:48:53;10.00;;;6.63;;
13879;SDS011;7010;48.200;16.332;2023-02-28T14:51:22;7.00;;;6.22;;
13879;SDS011;7010;48.200;16.332;2023-02-28T14:53:52;7.95;;;6.85;;
13879;SDS011;7010;48.200;16.332;2023-02-28T14:56:25;8.70;;;6.10;;
13879;SDS011;7010;48.200;16.332;2023-02-28T14:58:57;6.28;;;5.65;;
13879;SDS011;7010;48.200;16.332;2023-02-28T15:01:26;4.70;;;4.30;;
13879;SDS011;7010;48.200;16.332;2023-02-28T15:04:00;11.77;;;5.93;;
13879;SDS011;7010;48.200;16.332;2023-02-28T15:06:30;6.07;;;5.50;;
13879;SDS011;7010;48.200;16.332;2023-02-28T15:09:06;5.72;;;5.15;;
13879;SDS011;7010;48.200;16.332;2023-02-28T15:11:37;6.97;;;6.28;;
13879;SDS011;7010;48.200;16.332;2023-02-28T15:14:06;6.88;;;6.07;;
13879;SDS011;7010;48.200;16.332;2023-02-28T15:16:41;6.30;;;5.75;;
13879;SDS011;7010;48.200;16.332;2023-02-28T15:19:14;6.55;;;5.50;;
13879;SDS011;7010;48.200;16.332;2023-02-28T15:21:48;7.90;;;6.60;;
13879;SDS011;7010;48.200;16.332;2023-02-28T15:24:20;9.77;;;7.07;;
13879;SDS011;7010;48.200;16.332;2023-02-28T15:26:59;9.30;;;6.70;;
13879;SDS011;7010;48.200;16.332;2023-02-28T15:29:32;15.20;;;7.57;;
13879;SDS011;7010;48.200;16.332;2023-02-28T15:32:25;7.10;;;6.50;;
13879;SDS011;7010;48.200;16.332;2023-02-28T15:34:57;9.30;;;7.28;;
13879;SDS011;7010;48.200;16.332;2023-02-28T15:37:27;6.70;;;6.05;;
13879;SDS011;7010;48.200;16.332;2023-02-28T15:39:58;7.10;;;5.97;;
13879;SDS011;7010;48.200;16.332;2023-02-28T15:42:35;6.10;;;5.60;;
13879;SDS011;7010;48.200;16.332;2023-02-28T15:45:03;7.68;;;5.90;;
13879;SDS011;7010;48.200;16.332;2023-02-28T15:47:32;8.13;;;6.15;;
13879;SDS011;7010;48.200;16.332;2023-02-28T15:50:04;8.13;;;7.10;;
13879;SDS011;7010;48.200;16.332;2023-02-28T15:52:40;9.90;;;7.15;;
13879;SDS011;7010;48.200;16.332;2023-02-28T15:55:11;8.13;;;6.45;;
13879;SDS011;7010;48.200;16.332;2023-02-28T15:57:45;7.63;;;6.57;;